sensor_id;sensor_type;location;lat;lon;timestamp;temperature;humidity
584;HTU21D;27024;54.068;12.116;2023-02-20T00:00:32;4.53;113.32
584;HTU21D;27024;54.068;12.116;2023-02-20T00:02:59;4.54;112.90
584;HTU21D;27024;54.068;12.116;2023-02-20T00:05:25;4.57;112.74
584;HTU21D;27024;54.068;12.116;2023-02-20T00:07:52;4.50;113.46
584;HTU21D;27024;54.068;12.116;2023-02-20T00:10:19;4.47;113.54
584;HTU21D;27024;54.068;12.116;2023-02-20T00:12:46;4.51;113.15
584;HTU21D;27024;54.068;12.116;2023-02-20T00:15:14;4.57;112.97
584;HTU21D;27024;54.068;12.116;2023-02-20T00:17:45;4.56;112.89
584;HTU21D;27024;54.068;12.116;2023-02-20T00:20:21;4.58;113.13
584;HTU21D;27024;54.068;12.116;2023-02-20T00:22:49;4.61;112.91
584;HTU21D;27024;54.068;12.116;2023-02-20T00:25:17;4.56;113.08
584;HTU21D;27024;54.068;12.116;2023-02-20T00:27:45;4.57;112.87
584;HTU21D;27024;54.068;12.116;2023-02-20T00:30:17;4.52;113.13
584;HTU21D;27024;54.068;12.116;2023-02-20T00:32:46;4.56;113.39
584;HTU21D;27024;54.068;12.116;2023-02-20T00:35:16;4.52;113.80
584;HTU21D;27024;54.068;12.116;2023-02-20T00:37:45;4.49;113.85
584;HTU21D;27024;54.068;12.116;2023-02-20T00:40:12;4.45;114.54
584;HTU21D;27024;54.068;12.116;2023-02-20T00:42:40;4.52;114.25
584;HTU21D;27024;54.068;12.116;2023-02-20T00:45:07;4.39;114.29
584;HTU21D;27024;54.068;12.116;2023-02-20T00:47:34;4.39;115.03
584;HTU21D;27024;54.068;12.116;2023-02-20T00:50:01;4.34;115.27
584;HTU21D;27024;54.068;12.116;2023-02-20T00:52:28;4.33;115.95
584;HTU21D;27024;54.068;12.116;2023-02-20T00:54:55;4.31;116.09
584;HTU21D;27024;54.068;12.116;2023-02-20T00:57:21;4.29;116.14
584;HTU21D;27024;54.068;12.116;2023-02-20T00:59:48;4.27;116.63
584;HTU21D;27024;54.068;12.116;2023-02-20T01:02:15;4.32;116.78
584;HTU21D;27024;54.068;12.116;2023-02-20T01:04:42;4.24;116.71
584;HTU21D;27024;54.068;12.116;2023-02-20T01:07:09;4.29;116.60
584;HTU21D;27024;54.068;12.116;2023-02-20T01:09:36;4.23;117.12
584;HTU21D;27024;54.068;12.116;2023-02-20T01:12:03;4.21;117.47
584;HTU21D;27024;54.068;12.116;2023-02-20T01:14:30;4.20;117.60
584;HTU21D;27024;54.068;12.116;2023-02-20T01:16:56;4.24;117.18
584;HTU21D;27024;54.068;12.116;2023-02-20T01:19:24;4.23;117.68
584;HTU21D;27024;54.068;12.116;2023-02-20T01:21:51;4.20;117.88
584;HTU21D;27024;54.068;12.116;2023-02-20T01:24:18;4.23;118.01
584;HTU21D;27024;54.068;12.116;2023-02-20T01:26:46;4.19;118.14
584;HTU21D;27024;54.068;12.116;2023-02-20T01:29:14;4.21;118.16
584;HTU21D;27024;54.068;12.116;2023-02-20T01:31:51;4.18;118.30
584;HTU21D;27024;54.068;12.116;2023-02-20T01:34:19;4.17;118.53
584;HTU21D;27024;54.068;12.116;2023-02-20T01:36:52;4.18;118.36
584;HTU21D;27024;54.068;12.116;2023-02-20T01:39:24;4.17;118.47
584;HTU21D;27024;54.068;12.116;2023-02-20T01:41:54;4.19;118.05
584;HTU21D;27024;54.068;12.116;2023-02-20T01:44:26;4.23;118.23
584;HTU21D;27024;54.068;12.116;2023-02-20T01:46:55;4.22;117.96
584;HTU21D;27024;54.068;12.116;2023-02-20T01:52:22;4.23;117.73
584;HTU21D;27024;54.068;12.116;2023-02-20T01:54:55;4.23;117.76
584;HTU21D;27024;54.068;12.116;2023-02-20T01:57:27;4.22;117.49
584;HTU21D;27024;54.068;12.116;2023-02-20T02:00:02;4.18;117.60
584;HTU21D;27024;54.068;12.116;2023-02-20T02:02:33;4.18;117.73
584;HTU21D;27024;54.068;12.116;2023-02-20T02:05:01;4.20;117.39
584;HTU21D;27024;54.068;12.116;2023-02-20T02:07:28;4.20;117.43
584;HTU21D;27024;54.068;12.116;2023-02-20T02:10:11;4.22;117.21
584;HTU21D;27024;54.068;12.116;2023-02-20T02:12:41;4.23;117.02
584;HTU21D;27024;54.068;12.116;2023-02-20T02:15:15;4.24;117.23
584;HTU21D;27024;54.068;12.116;2023-02-20T02:17:51;4.26;116.89
584;HTU21D;27024;54.068;12.116;2023-02-20T02:31:47;4.38;115.77
584;HTU21D;27024;54.068;12.116;2023-02-20T02:40:12;4.36;116.65
584;HTU21D;27024;54.068;12.116;2023-02-20T02:42:51;4.41;116.59
584;HTU21D;27024;54.068;12.116;2023-02-20T02:50:35;4.46;116.88
584;HTU21D;27024;54.068;12.116;2023-02-20T02:53:07;4.43;116.78
584;HTU21D;27024;54.068;12.116;2023-02-20T02:55:35;4.47;116.53
584;HTU21D;27024;54.068;12.116;2023-02-20T02:58:03;4.49;116.38
584;HTU21D;27024;54.068;12.116;2023-02-20T03:00:52;4.52;116.60
584;HTU21D;27024;54.068;12.116;2023-02-20T03:03:31;4.56;116.86
584;HTU21D;27024;54.068;12.116;2023-02-20T03:11:05;4.62;117.07
584;HTU21D;27024;54.068;12.116;2023-02-20T03:13:39;4.63;117.40
584;HTU21D;27024;54.068;12.116;2023-02-20T03:16:37;4.62;117.76
584;HTU21D;27024;54.068;12.116;2023-02-20T03:19:09;4.64;117.95
584;HTU21D;27024;54.068;12.116;2023-02-20T03:21:44;4.67;118.09
584;HTU21D;27024;54.068;12.116;2023-02-20T03:24:16;4.67;118.71
584;HTU21D;27024;54.068;12.116;2023-02-20T03:26:45;4.73;118.74
584;HTU21D;27024;54.068;12.116;2023-02-20T03:29:17;4.66;118.99
584;HTU21D;27024;54.068;12.116;2023-02-20T03:31:54;4.67;118.99
584;HTU21D;27024;54.068;12.116;2023-02-20T03:34:41;4.68;118.99
584;HTU21D;27024;54.068;12.116;2023-02-20T03:37:30;4.71;118.99
584;HTU21D;27024;54.068;12.116;2023-02-20T03:40:18;4.74;118.99
584;HTU21D;27024;54.068;12.116;2023-02-20T03:43:08;4.76;118.99
584;HTU21D;27024;54.068;12.116;2023-02-20T03:46:02;4.77;118.99
584;HTU21D;27024;54.068;12.116;2023-02-20T03:51:06;4.83;118.99
584;HTU21D;27024;54.068;12.116;2023-02-20T03:53:40;4.86;118.99
584;HTU21D;27024;54.068;12.116;2023-02-20T03:56:12;4.88;118.99
584;HTU21D;27024;54.068;12.116;2023-02-20T03:58:44;4.92;118.99
584;HTU21D;27024;54.068;12.116;2023-02-20T04:01:13;4.93;118.99
584;HTU21D;27024;54.068;12.116;2023-02-20T04:03:46;4.95;118.99
584;HTU21D;27024;54.068;12.116;2023-02-20T04:06:14;4.98;118.99
584;HTU21D;27024;54.068;12.116;2023-02-20T04:08:55;5.01;118.99
584;HTU21D;27024;54.068;12.116;2023-02-20T04:11:44;5.02;118.99
584;HTU21D;27024;54.068;12.116;2023-02-20T04:14:13;5.05;118.99
584;HTU21D;27024;54.068;12.116;2023-02-20T04:16:54;5.08;118.99
584;HTU21D;27024;54.068;12.116;2023-02-20T04:19:22;5.12;118.99
584;HTU21D;27024;54.068;12.116;2023-02-20T04:21:51;5.11;118.99
584;HTU21D;27024;54.068;12.116;2023-02-20T04:24:23;5.11;118.99
584;HTU21D;27024;54.068;12.116;2023-02-20T04:26:52;5.16;118.99
584;HTU21D;27024;54.068;12.116;2023-02-20T04:29:19;5.22;118.99
584;HTU21D;27024;54.068;12.116;2023-02-20T04:31:46;5.25;118.74
584;HTU21D;27024;54.068;12.116;2023-02-20T04:34:13;5.24;118.99
584;HTU21D;27024;54.068;12.116;2023-02-20T04:36:39;5.30;118.75
584;HTU21D;27024;54.068;12.116;2023-02-20T04:39:07;5.37;118.37
584;HTU21D;27024;54.068;12.116;2023-02-20T04:41:34;5.37;118.57
584;HTU21D;27024;54.068;12.116;2023-02-20T04:44:00;5.41;118.40
584;HTU21D;27024;54.068;12.116;2023-02-20T04:46:46;5.45;118.38
584;HTU21D;27024;54.068;12.116;2023-02-20T04:49:12;5.49;118.37
584;HTU21D;27024;54.068;12.116;2023-02-20T04:51:39;5.54;117.95
584;HTU21D;27024;54.068;12.116;2023-02-20T04:54:06;5.55;118.61
584;HTU21D;27024;54.068;12.116;2023-02-20T04:56:33;5.66;117.84
584;HTU21D;27024;54.068;12.116;2023-02-20T04:58:59;5.75;117.52
584;HTU21D;27024;54.068;12.116;2023-02-20T05:01:26;5.76;117.77
584;HTU21D;27024;54.068;12.116;2023-02-20T05:03:53;5.79;117.51
584;HTU21D;27024;54.068;12.116;2023-02-20T05:06:20;5.81;117.50
584;HTU21D;27024;54.068;12.116;2023-02-20T05:08:46;5.83;117.72
584;HTU21D;27024;54.068;12.116;2023-02-20T05:11:16;5.81;117.78
584;HTU21D;27024;54.068;12.116;2023-02-20T05:13:42;5.84;117.87
584;HTU21D;27024;54.068;12.116;2023-02-20T05:16:10;5.82;118.12
584;HTU21D;27024;54.068;12.116;2023-02-20T05:18:39;5.83;118.63
584;HTU21D;27024;54.068;12.116;2023-02-20T05:21:06;5.86;118.48
584;HTU21D;27024;54.068;12.116;2023-02-20T05:23:51;5.84;118.39
584;HTU21D;27024;54.068;12.116;2023-02-20T05:26:20;5.90;118.21
584;HTU21D;27024;54.068;12.116;2023-02-20T05:28:47;5.95;117.86
584;HTU21D;27024;54.068;12.116;2023-02-20T05:31:14;5.97;117.64
584;HTU21D;27024;54.068;12.116;2023-02-20T05:33:43;5.97;117.73
584;HTU21D;27024;54.068;12.116;2023-02-20T05:36:10;6.00;117.05
584;HTU21D;27024;54.068;12.116;2023-02-20T05:38:37;6.06;116.76
584;HTU21D;27024;54.068;12.116;2023-02-20T05:41:04;6.07;116.80
584;HTU21D;27024;54.068;12.116;2023-02-20T05:43:31;6.04;117.05
584;HTU21D;27024;54.068;12.116;2023-02-20T05:45:57;6.08;116.83
584;HTU21D;27024;54.068;12.116;2023-02-20T05:48:27;6.08;116.41
584;HTU21D;27024;54.068;12.116;2023-02-20T05:50:53;6.08;116.78
584;HTU21D;27024;54.068;12.116;2023-02-20T05:53:20;6.13;116.31
584;HTU21D;27024;54.068;12.116;2023-02-20T05:55:47;6.14;116.02
584;HTU21D;27024;54.068;12.116;2023-02-20T05:58:14;6.13;116.10
584;HTU21D;27024;54.068;12.116;2023-02-20T06:00:41;6.14;116.18
584;HTU21D;27024;54.068;12.116;2023-02-20T06:03:08;6.17;115.75
584;HTU21D;27024;54.068;12.116;2023-02-20T06:05:37;6.22;115.80
584;HTU21D;27024;54.068;12.116;2023-02-20T06:08:05;6.27;115.44
584;HTU21D;27024;54.068;12.116;2023-02-20T06:10:32;6.30;115.22
584;HTU21D;27024;54.068;12.116;2023-02-20T06:12:59;6.29;115.38
584;HTU21D;27024;54.068;12.116;2023-02-20T06:15:27;6.31;114.97
584;HTU21D;27024;54.068;12.116;2023-02-20T06:17:53;6.35;115.15
584;HTU21D;27024;54.068;12.116;2023-02-20T06:20:20;6.48;114.16
584;HTU21D;27024;54.068;12.116;2023-02-20T06:22:48;6.54;114.03
584;HTU21D;27024;54.068;12.116;2023-02-20T06:25:15;6.59;113.42
584;HTU21D;27024;54.068;12.116;2023-02-20T06:27:41;6.60;113.38
584;HTU21D;27024;54.068;12.116;2023-02-20T06:30:09;6.61;113.22
584;HTU21D;27024;54.068;12.116;2023-02-20T06:32:36;6.66;112.87
584;HTU21D;27024;54.068;12.116;2023-02-20T06:35:04;6.70;112.42
584;HTU21D;27024;54.068;12.116;2023-02-20T06:37:31;6.68;112.80
584;HTU21D;27024;54.068;12.116;2023-02-20T06:39:58;6.70;112.61
584;HTU21D;27024;54.068;12.116;2023-02-20T06:42:25;6.75;112.19
584;HTU21D;27024;54.068;12.116;2023-02-20T06:44:52;6.76;112.02
584;HTU21D;27024;54.068;12.116;2023-02-20T06:47:18;6.70;112.33
584;HTU21D;27024;54.068;12.116;2023-02-20T06:49:45;6.69;112.49
584;HTU21D;27024;54.068;12.116;2023-02-20T06:52:13;6.69;112.35
584;HTU21D;27024;54.068;12.116;2023-02-20T06:54:40;6.67;112.62
584;HTU21D;27024;54.068;12.116;2023-02-20T06:57:06;6.72;112.33
584;HTU21D;27024;54.068;12.116;2023-02-20T06:59:33;6.73;112.28
584;HTU21D;27024;54.068;12.116;2023-02-20T07:02:11;6.74;112.23
584;HTU21D;27024;54.068;12.116;2023-02-20T07:04:38;6.78;112.50
584;HTU21D;27024;54.068;12.116;2023-02-20T07:07:05;6.80;112.17
584;HTU21D;27024;54.068;12.116;2023-02-20T07:09:32;6.82;112.05
584;HTU21D;27024;54.068;12.116;2023-02-20T07:11:59;6.86;112.03
584;HTU21D;27024;54.068;12.116;2023-02-20T07:14:25;6.84;112.03
584;HTU21D;27024;54.068;12.116;2023-02-20T07:16:52;6.88;111.71
584;HTU21D;27024;54.068;12.116;2023-02-20T07:19:19;6.93;111.49
584;HTU21D;27024;54.068;12.116;2023-02-20T07:21:46;6.95;111.68
584;HTU21D;27024;54.068;12.116;2023-02-20T07:24:12;7.00;111.31
584;HTU21D;27024;54.068;12.116;2023-02-20T07:26:39;6.98;111.60
584;HTU21D;27024;54.068;12.116;2023-02-20T07:29:06;7.10;111.45
584;HTU21D;27024;54.068;12.116;2023-02-20T07:31:33;7.10;111.37
584;HTU21D;27024;54.068;12.116;2023-02-20T07:34:00;7.13;111.23
584;HTU21D;27024;54.068;12.116;2023-02-20T07:36:27;7.17;111.47
584;HTU21D;27024;54.068;12.116;2023-02-20T07:38:58;7.18;111.26
584;HTU21D;27024;54.068;12.116;2023-02-20T07:41:27;7.15;111.49
584;HTU21D;27024;54.068;12.116;2023-02-20T07:43:58;7.25;111.11
584;HTU21D;27024;54.068;12.116;2023-02-20T07:46:25;7.22;111.46
584;HTU21D;27024;54.068;12.116;2023-02-20T07:48:51;7.27;111.58
584;HTU21D;27024;54.068;12.116;2023-02-20T07:51:18;7.23;111.69
584;HTU21D;27024;54.068;12.116;2023-02-20T07:53:50;7.27;111.51
584;HTU21D;27024;54.068;12.116;2023-02-20T07:56:19;7.32;111.07
584;HTU21D;27024;54.068;12.116;2023-02-20T07:58:46;7.35;111.42
584;HTU21D;27024;54.068;12.116;2023-02-20T08:01:14;7.37;111.47
584;HTU21D;27024;54.068;12.116;2023-02-20T08:03:41;7.33;111.46
584;HTU21D;27024;54.068;12.116;2023-02-20T08:06:08;7.42;111.29
584;HTU21D;27024;54.068;12.116;2023-02-20T08:08:35;7.44;111.23
584;HTU21D;27024;54.068;12.116;2023-02-20T08:11:02;7.45;111.20
584;HTU21D;27024;54.068;12.116;2023-02-20T08:13:35;7.41;111.99
584;HTU21D;27024;54.068;12.116;2023-02-20T08:16:02;7.48;111.68
584;HTU21D;27024;54.068;12.116;2023-02-20T08:18:29;7.48;111.85
584;HTU21D;27024;54.068;12.116;2023-02-20T08:20:56;7.49;112.03
584;HTU21D;27024;54.068;12.116;2023-02-20T08:23:23;7.56;111.83
584;HTU21D;27024;54.068;12.116;2023-02-20T08:25:51;7.54;111.90
584;HTU21D;27024;54.068;12.116;2023-02-20T08:28:19;7.55;112.27
584;HTU21D;27024;54.068;12.116;2023-02-20T08:30:46;7.59;112.26
584;HTU21D;27024;54.068;12.116;2023-02-20T08:33:13;7.63;112.26
584;HTU21D;27024;54.068;12.116;2023-02-20T08:35:41;7.61;112.45
584;HTU21D;27024;54.068;12.116;2023-02-20T08:40:51;7.68;112.62
584;HTU21D;27024;54.068;12.116;2023-02-20T08:43:18;7.69;112.57
584;HTU21D;27024;54.068;12.116;2023-02-20T08:45:45;7.73;112.77
584;HTU21D;27024;54.068;12.116;2023-02-20T08:48:12;7.73;112.93
584;HTU21D;27024;54.068;12.116;2023-02-20T08:50:38;7.75;112.82
584;HTU21D;27024;54.068;12.116;2023-02-20T08:53:05;7.81;112.99
584;HTU21D;27024;54.068;12.116;2023-02-20T08:55:32;7.82;112.95
584;HTU21D;27024;54.068;12.116;2023-02-20T08:57:59;7.83;113.03
584;HTU21D;27024;54.068;12.116;2023-02-20T09:00:26;7.85;113.32
584;HTU21D;27024;54.068;12.116;2023-02-20T09:02:53;7.87;113.39
584;HTU21D;27024;54.068;12.116;2023-02-20T09:05:20;7.83;113.75
584;HTU21D;27024;54.068;12.116;2023-02-20T09:07:47;7.85;113.81
584;HTU21D;27024;54.068;12.116;2023-02-20T09:10:16;7.91;113.95
584;HTU21D;27024;54.068;12.116;2023-02-20T09:12:44;7.89;114.15
584;HTU21D;27024;54.068;12.116;2023-02-20T09:15:11;7.92;113.92
584;HTU21D;27024;54.068;12.116;2023-02-20T09:17:38;7.93;114.21
584;HTU21D;27024;54.068;12.116;2023-02-20T09:20:06;7.90;114.57
584;HTU21D;27024;54.068;12.116;2023-02-20T09:22:35;7.94;114.38
584;HTU21D;27024;54.068;12.116;2023-02-20T09:25:03;7.90;114.89
584;HTU21D;27024;54.068;12.116;2023-02-20T09:27:30;7.99;114.86
584;HTU21D;27024;54.068;12.116;2023-02-20T09:29:57;7.93;115.15
584;HTU21D;27024;54.068;12.116;2023-02-20T09:32:24;7.97;115.18
584;HTU21D;27024;54.068;12.116;2023-02-20T09:34:50;7.98;115.34
584;HTU21D;27024;54.068;12.116;2023-02-20T09:37:17;7.96;115.66
584;HTU21D;27024;54.068;12.116;2023-02-20T09:39:44;7.99;115.75
584;HTU21D;27024;54.068;12.116;2023-02-20T09:42:35;8.04;115.60
584;HTU21D;27024;54.068;12.116;2023-02-20T09:45:19;8.05;115.70
584;HTU21D;27024;54.068;12.116;2023-02-20T09:48:27;8.07;115.85
584;HTU21D;27024;54.068;12.116;2023-02-20T09:51:04;8.15;115.88
584;HTU21D;27024;54.068;12.116;2023-02-20T09:53:49;8.17;116.18
584;HTU21D;27024;54.068;12.116;2023-02-20T09:56:25;8.09;116.32
584;HTU21D;27024;54.068;12.116;2023-02-20T09:59:12;8.09;116.64
584;HTU21D;27024;54.068;12.116;2023-02-20T10:01:50;8.07;117.14
584;HTU21D;27024;54.068;12.116;2023-02-20T10:04:33;8.07;117.66
584;HTU21D;27024;54.068;12.116;2023-02-20T10:07:23;8.04;118.57
584;HTU21D;27024;54.068;12.116;2023-02-20T10:09:51;8.04;118.99
584;HTU21D;27024;54.068;12.116;2023-02-20T10:25:50;7.99;118.99
584;HTU21D;27024;54.068;12.116;2023-02-20T10:28:19;7.94;118.99
584;HTU21D;27024;54.068;12.116;2023-02-20T10:34:11;8.02;118.99
584;HTU21D;27024;54.068;12.116;2023-02-20T10:36:49;8.04;118.99
584;HTU21D;27024;54.068;12.116;2023-02-20T10:39:19;8.04;118.99
584;HTU21D;27024;54.068;12.116;2023-02-20T10:42:08;8.02;118.99
584;HTU21D;27024;54.068;12.116;2023-02-20T10:44:56;8.06;118.99
584;HTU21D;27024;54.068;12.116;2023-02-20T10:47:42;8.07;118.99
584;HTU21D;27024;54.068;12.116;2023-02-20T10:50:23;8.14;118.99
584;HTU21D;27024;54.068;12.116;2023-02-20T10:53:15;8.16;118.99
584;HTU21D;27024;54.068;12.116;2023-02-20T10:55:54;8.18;118.99
584;HTU21D;27024;54.068;12.116;2023-02-20T10:58:34;8.22;118.99
584;HTU21D;27024;54.068;12.116;2023-02-20T11:01:09;8.26;118.99
584;HTU21D;27024;54.068;12.116;2023-02-20T11:06:26;8.37;118.99
584;HTU21D;27024;54.068;12.116;2023-02-20T11:08:55;8.44;118.99
584;HTU21D;27024;54.068;12.116;2023-02-20T11:11:31;8.42;118.99
584;HTU21D;27024;54.068;12.116;2023-02-20T11:14:11;8.47;118.99
584;HTU21D;27024;54.068;12.116;2023-02-20T11:16:48;8.51;118.99
584;HTU21D;27024;54.068;12.116;2023-02-20T11:19:22;8.62;118.99
584;HTU21D;27024;54.068;12.116;2023-02-20T11:21:50;8.57;118.99
584;HTU21D;27024;54.068;12.116;2023-02-20T11:27:04;8.71;118.99
584;HTU21D;27024;54.068;12.116;2023-02-20T11:29:46;8.72;118.99
584;HTU21D;27024;54.068;12.116;2023-02-20T11:37:43;8.74;118.99
584;HTU21D;27024;54.068;12.116;2023-02-20T11:40:27;8.81;118.73
584;HTU21D;27024;54.068;12.116;2023-02-20T11:42:54;8.91;118.27
584;HTU21D;27024;54.068;12.116;2023-02-20T11:45:26;8.83;118.73
584;HTU21D;27024;54.068;12.116;2023-02-20T11:48:13;8.91;117.97
584;HTU21D;27024;54.068;12.116;2023-02-20T11:50:45;8.95;117.70
584;HTU21D;27024;54.068;12.116;2023-02-20T11:55:49;8.95;117.73
584;HTU21D;27024;54.068;12.116;2023-02-20T11:58:26;8.95;117.54
584;HTU21D;27024;54.068;12.116;2023-02-20T12:00:54;9.00;117.09
584;HTU21D;27024;54.068;12.116;2023-02-20T12:05:55;9.02;116.88
584;HTU21D;27024;54.068;12.116;2023-02-20T12:11:17;9.00;116.39
584;HTU21D;27024;54.068;12.116;2023-02-20T12:13:47;9.01;116.89
584;HTU21D;27024;54.068;12.116;2023-02-20T12:30:31;9.00;115.76
584;HTU21D;27024;54.068;12.116;2023-02-20T12:36:20;9.00;115.83
584;HTU21D;27024;54.068;12.116;2023-02-20T12:39:06;8.97;116.32
584;HTU21D;27024;54.068;12.116;2023-02-20T12:41:49;8.96;116.44
584;HTU21D;27024;54.068;12.116;2023-02-20T12:44:32;8.98;115.91
584;HTU21D;27024;54.068;12.116;2023-02-20T12:47:28;8.95;116.73
584;HTU21D;27024;54.068;12.116;2023-02-20T13:00:40;9.02;115.93
584;HTU21D;27024;54.068;12.116;2023-02-20T13:06:06;9.03;115.91
584;HTU21D;27024;54.068;12.116;2023-02-20T13:08:51;9.00;116.09
584;HTU21D;27024;54.068;12.116;2023-02-20T13:11:23;9.04;115.99
584;HTU21D;27024;54.068;12.116;2023-02-20T13:14:15;9.01;116.28
584;HTU21D;27024;54.068;12.116;2023-02-20T13:22:36;8.91;117.96
584;HTU21D;27024;54.068;12.116;2023-02-20T13:25:38;8.89;118.69
584;HTU21D;27024;54.068;12.116;2023-02-20T13:33:36;8.76;118.99
584;HTU21D;27024;54.068;12.116;2023-02-20T13:36:04;8.75;118.99
584;HTU21D;27024;54.068;12.116;2023-02-20T13:38:31;8.73;118.99
584;HTU21D;27024;54.068;12.116;2023-02-20T13:41:04;8.70;118.99
584;HTU21D;27024;54.068;12.116;2023-02-20T13:43:34;8.66;118.99
584;HTU21D;27024;54.068;12.116;2023-02-20T13:48:48;8.66;118.99
584;HTU21D;27024;54.068;12.116;2023-02-20T13:54:12;8.66;118.99
584;HTU21D;27024;54.068;12.116;2023-02-20T13:56:46;8.71;118.99
584;HTU21D;27024;54.068;12.116;2023-02-20T13:59:17;8.70;118.99
584;HTU21D;27024;54.068;12.116;2023-02-20T14:02:01;8.70;118.99
584;HTU21D;27024;54.068;12.116;2023-02-20T14:04:28;8.70;118.99
584;HTU21D;27024;54.068;12.116;2023-02-20T14:06:56;8.70;118.99
584;HTU21D;27024;54.068;12.116;2023-02-20T14:09:28;8.67;118.99
584;HTU21D;27024;54.068;12.116;2023-02-20T14:12:10;8.71;118.99
584;HTU21D;27024;54.068;12.116;2023-02-20T14:14:43;8.68;118.99
584;HTU21D;27024;54.068;12.116;2023-02-20T14:17:16;8.71;118.99
584;HTU21D;27024;54.068;12.116;2023-02-20T14:19:47;8.65;118.99
584;HTU21D;27024;54.068;12.116;2023-02-20T14:27:31;8.60;118.99
584;HTU21D;27024;54.068;12.116;2023-02-20T14:30:12;8.63;118.99
584;HTU21D;27024;54.068;12.116;2023-02-20T14:32:45;8.60;118.99
584;HTU21D;27024;54.068;12.116;2023-02-20T14:35:38;8.58;118.99
584;HTU21D;27024;54.068;12.116;2023-02-20T14:41:21;8.51;118.99
584;HTU21D;27024;54.068;12.116;2023-02-20T14:43:56;8.51;118.99
584;HTU21D;27024;54.068;12.116;2023-02-20T14:46:26;8.56;118.99
584;HTU21D;27024;54.068;12.116;2023-02-20T14:49:06;8.50;118.99
584;HTU21D;27024;54.068;12.116;2023-02-20T14:51:33;8.52;118.99
584;HTU21D;27024;54.068;12.116;2023-02-20T14:56:38;8.51;118.99
584;HTU21D;27024;54.068;12.116;2023-02-20T14:59:16;8.53;118.99
584;HTU21D;27024;54.068;12.116;2023-02-20T15:01:47;8.50;118.99
584;HTU21D;27024;54.068;12.116;2023-02-20T15:04:16;8.49;118.99
584;HTU21D;27024;54.068;12.116;2023-02-20T15:06:48;8.47;118.99
584;HTU21D;27024;54.068;12.116;2023-02-20T15:09:16;8.52;118.99
584;HTU21D;27024;54.068;12.116;2023-02-20T15:11:54;8.48;118.99
584;HTU21D;27024;54.068;12.116;2023-02-20T15:14:28;8.48;118.99
584;HTU21D;27024;54.068;12.116;2023-02-20T15:19:49;8.45;118.99
584;HTU21D;27024;54.068;12.116;2023-02-20T15:22:28;8.48;118.99
584;HTU21D;27024;54.068;12.116;2023-02-20T15:25:34;8.46;118.99
584;HTU21D;27024;54.068;12.116;2023-02-20T15:28:23;8.47;118.99
584;HTU21D;27024;54.068;12.116;2023-02-20T15:33:36;8.48;118.99
584;HTU21D;27024;54.068;12.116;2023-02-20T15:36:04;8.48;118.99
584;HTU21D;27024;54.068;12.116;2023-02-20T15:38:35;8.48;118.99
584;HTU21D;27024;54.068;12.116;2023-02-20T15:41:03;8.49;118.99
584;HTU21D;27024;54.068;12.116;2023-02-20T15:43:31;8.51;118.99
584;HTU21D;27024;54.068;12.116;2023-02-20T15:46:18;8.51;118.99
584;HTU21D;27024;54.068;12.116;2023-02-20T15:48:45;8.57;118.99
584;HTU21D;27024;54.068;12.116;2023-02-20T15:51:18;8.48;118.99
584;HTU21D;27024;54.068;12.116;2023-02-20T15:53:46;8.48;118.99
584;HTU21D;27024;54.068;12.116;2023-02-20T15:56:14;8.48;118.99
584;HTU21D;27024;54.068;12.116;2023-02-20T15:58:42;8.45;118.99
584;HTU21D;27024;54.068;12.116;2023-02-20T16:01:10;8.48;118.99
584;HTU21D;27024;54.068;12.116;2023-02-20T16:03:37;8.46;118.99
584;HTU21D;27024;54.068;12.116;2023-02-20T16:06:19;8.47;118.99
584;HTU21D;27024;54.068;12.116;2023-02-20T16:08:46;8.47;118.99
584;HTU21D;27024;54.068;12.116;2023-02-20T16:11:13;8.47;118.99
584;HTU21D;27024;54.068;12.116;2023-02-20T16:13:42;8.46;118.99
584;HTU21D;27024;54.068;12.116;2023-02-20T16:16:19;8.45;118.99
584;HTU21D;27024;54.068;12.116;2023-02-20T16:18:51;8.43;118.99
584;HTU21D;27024;54.068;12.116;2023-02-20T16:21:22;8.37;118.99
584;HTU21D;27024;54.068;12.116;2023-02-20T16:23:50;8.43;118.99
584;HTU21D;27024;54.068;12.116;2023-02-20T16:26:18;8.41;118.99
584;HTU21D;27024;54.068;12.116;2023-02-20T16:28:54;8.39;118.99
584;HTU21D;27024;54.068;12.116;2023-02-20T16:34:23;8.37;118.99
584;HTU21D;27024;54.068;12.116;2023-02-20T16:36:51;8.34;118.99
584;HTU21D;27024;54.068;12.116;2023-02-20T16:39:19;8.36;118.99
584;HTU21D;27024;54.068;12.116;2023-02-20T16:41:54;8.35;118.99
584;HTU21D;27024;54.068;12.116;2023-02-20T16:46:57;8.41;118.99
584;HTU21D;27024;54.068;12.116;2023-02-20T16:49:24;8.39;118.99
584;HTU21D;27024;54.068;12.116;2023-02-20T16:51:52;8.45;118.99
584;HTU21D;27024;54.068;12.116;2023-02-20T16:54:27;8.45;118.99
584;HTU21D;27024;54.068;12.116;2023-02-20T16:56:54;8.44;118.99
584;HTU21D;27024;54.068;12.116;2023-02-20T16:59:21;8.38;118.99
584;HTU21D;27024;54.068;12.116;2023-02-20T17:01:48;8.39;118.99
584;HTU21D;27024;54.068;12.116;2023-02-20T17:04:17;8.37;118.99
584;HTU21D;27024;54.068;12.116;2023-02-20T17:06:45;8.35;118.99
584;HTU21D;27024;54.068;12.116;2023-02-20T17:09:13;8.41;118.99
584;HTU21D;27024;54.068;12.116;2023-02-20T17:11:40;8.38;118.99
584;HTU21D;27024;54.068;12.116;2023-02-20T17:14:07;8.35;118.99
584;HTU21D;27024;54.068;12.116;2023-02-20T17:16:33;8.41;118.99
584;HTU21D;27024;54.068;12.116;2023-02-20T17:19:01;8.39;118.99
584;HTU21D;27024;54.068;12.116;2023-02-20T17:21:28;8.38;118.99
584;HTU21D;27024;54.068;12.116;2023-02-20T17:23:54;8.38;118.99
584;HTU21D;27024;54.068;12.116;2023-02-20T17:26:21;8.39;118.99
584;HTU21D;27024;54.068;12.116;2023-02-20T17:28:52;8.35;118.99
584;HTU21D;27024;54.068;12.116;2023-02-20T17:31:18;8.37;118.99
584;HTU21D;27024;54.068;12.116;2023-02-20T17:33:47;8.39;118.99
584;HTU21D;27024;54.068;12.116;2023-02-20T17:36:14;8.36;118.99
584;HTU21D;27024;54.068;12.116;2023-02-20T17:38:41;8.37;118.99
584;HTU21D;27024;54.068;12.116;2023-02-20T17:41:08;8.37;118.99
584;HTU21D;27024;54.068;12.116;2023-02-20T17:43:37;8.36;118.99
584;HTU21D;27024;54.068;12.116;2023-02-20T17:46:04;8.29;118.99
584;HTU21D;27024;54.068;12.116;2023-02-20T17:48:30;8.35;118.99
584;HTU21D;27024;54.068;12.116;2023-02-20T17:50:57;8.37;118.99
584;HTU21D;27024;54.068;12.116;2023-02-20T17:53:24;8.32;118.99
584;HTU21D;27024;54.068;12.116;2023-02-20T17:55:51;8.31;118.99
584;HTU21D;27024;54.068;12.116;2023-02-20T17:58:19;8.31;118.99
584;HTU21D;27024;54.068;12.116;2023-02-20T18:00:45;8.31;118.99
584;HTU21D;27024;54.068;12.116;2023-02-20T18:03:12;8.34;118.99
584;HTU21D;27024;54.068;12.116;2023-02-20T18:05:39;8.33;118.99
584;HTU21D;27024;54.068;12.116;2023-02-20T18:08:06;8.28;118.99
584;HTU21D;27024;54.068;12.116;2023-02-20T18:10:33;8.26;118.99
584;HTU21D;27024;54.068;12.116;2023-02-20T18:13:00;8.21;118.99
584;HTU21D;27024;54.068;12.116;2023-02-20T18:15:30;8.27;118.99